Airfield :







YOU CAN JOIN US ON...

 
LOGIN :

Register | Disclaimer

   EN    FR    IT 

 









Legend :    VFR   Marginal VFR   IFR   Intensive IFR   Very Intensive IFR
Visi :
Ceiling :
>= 8 km
>= 3000ft
5 to 8 km
1000 to 3000 ft
1500m to 5 km
500 to 1000 ft
800 to 1500m
200 to 500 ft
< 800m
< 200 ft
Symbols :   Thunderstorms  Fog  Heavy snow  Heavy precipitations  Wind > 20 kt







- Airport Elevation : 335 ft
- IATA code : BTV


KBTV - Burlington International

CURRENT METAR :
  • 210554Z 25004KT 10SM SCT070 28/22 A2969 RMK AO2 SLP049 T02780222 10311 20278 58007 $

EXPIRED METARs :
  • 210454Z 20004KT 10SM FEW055 28/22 A2969 RMK AO2 SLP051 T02830222 403440222 $
  • 210354Z 21004KT 10SM FEW055 28/23 A2971 RMK AO2 SLP057 /LAST/ T02830228 $

TAF KBTV
Valid from the 21 at 06:00 until the 22 at 06:00 UTC


210540Z 2106/2206 20007KT P6SM SCT050
FM210800 20007KT P6SM VCSH BKN080
FM211500 22008KT P6SM BKN035
FM211900 25007KT P6SM VCSH SCT045
KZBW FIR / North America



MET'MAP, your aeronautical weather chart ! - Copyright ORBIFLY December 2007 - Disclaimer

ORBIFLY MET'MAP TEAM :

Programming & Development : Alexandra Zaïnal
Concept & Development : Baudouin d'Aumeries
Co-Development & Prog : Marc-Olivier Méhu
Technical & hardware support : Manuel Goepfert

Contact : metmap@orbifly.com




SOURCES & CREDITS :

   NOAA